createdAt,value
2022-09-22T00:02:16.473Z,3.70
2022-09-22T00:04:42.951Z,3.83
2022-09-22T00:07:09.537Z,5.55
2022-09-22T00:09:36.009Z,4.45
2022-09-22T00:12:02.450Z,4.47
2022-09-22T00:14:28.925Z,3.83
2022-09-22T00:16:58.545Z,4.07
2022-09-22T00:19:30.621Z,4.60
2022-09-22T00:21:57.708Z,4.18
2022-09-22T00:24:26.670Z,4.47
2022-09-22T00:26:57.904Z,5.03
2022-09-22T00:29:25.989Z,4.20
2022-09-22T00:31:52.494Z,4.10
2022-09-22T00:34:22.604Z,4.35
2022-09-22T00:36:49.852Z,4.05
2022-09-22T00:39:17.453Z,4.07
2022-09-22T00:41:48.518Z,3.85
2022-09-22T00:44:27.006Z,3.88
2022-09-22T00:46:55.921Z,3.42
2022-09-22T00:49:34.145Z,3.90
2022-09-22T00:52:01.308Z,3.58
2022-09-22T00:54:27.810Z,3.78
2022-09-22T00:57:02.191Z,3.45
2022-09-22T00:59:28.729Z,3.58
2022-09-22T01:01:57.625Z,3.35
2022-09-22T01:04:24.288Z,3.58
2022-09-22T01:06:52.838Z,3.78
2022-09-22T01:09:19.549Z,4.00
2022-09-22T01:11:46.337Z,3.53
2022-09-22T01:14:35.459Z,3.22
2022-09-22T01:17:08.688Z,3.55
2022-09-22T01:19:37.777Z,3.67
2022-09-22T01:22:28.636Z,3.20
2022-09-22T01:25:21.574Z,3.55
2022-09-22T01:28:06.101Z,3.40
2022-09-22T01:30:55.900Z,3.88
2022-09-22T01:33:35.620Z,3.92
2022-09-22T01:36:27.649Z,3.88
2022-09-22T01:39:01.401Z,3.08
2022-09-22T01:41:51.718Z,3.63
2022-09-22T01:44:32.621Z,3.72
2022-09-22T01:47:28.222Z,3.60
2022-09-22T01:50:02.862Z,3.58
2022-09-22T01:52:32.587Z,3.70
2022-09-22T01:55:16.125Z,3.75
2022-09-22T01:58:02.004Z,3.88
2022-09-22T02:00:28.956Z,3.67
2022-09-22T02:03:06.482Z,3.55
2022-09-22T02:05:38.705Z,3.92
2022-09-22T02:08:13.537Z,3.25
2022-09-22T02:10:44.250Z,3.60
2022-09-22T02:13:10.785Z,4.03
2022-09-22T02:15:56.136Z,3.53
2022-09-22T02:18:35.860Z,3.28
2022-09-22T02:21:03.520Z,3.67
2022-09-22T02:23:32.094Z,3.40
2022-09-22T02:26:01.844Z,3.67
2022-09-22T02:28:31.307Z,3.20
2022-09-22T02:33:45.080Z,3.50
2022-09-22T02:36:34.072Z,3.97
2022-09-22T02:39:11.863Z,3.53
2022-09-22T02:41:53.512Z,3.55
2022-09-22T02:44:35.268Z,3.40
2022-09-22T02:47:32.278Z,3.58
2022-09-22T02:50:00.104Z,3.38
2022-09-22T02:52:26.704Z,3.50
2022-09-22T02:54:54.280Z,3.60
2022-09-22T02:57:20.980Z,3.53
2022-09-22T02:59:47.433Z,3.63
2022-09-22T03:02:14.099Z,3.58
2022-09-22T03:04:40.666Z,3.40
2022-09-22T03:07:07.306Z,3.55
2022-09-22T03:09:33.897Z,3.83
2022-09-22T03:12:00.461Z,3.70
2022-09-22T03:14:27.124Z,3.00
2022-09-22T03:16:53.586Z,3.58
2022-09-22T03:19:20.040Z,4.03
2022-09-22T03:21:46.479Z,3.42
2022-09-22T03:24:12.940Z,3.42
2022-09-22T03:26:39.491Z,3.28
2022-09-22T03:29:06.154Z,3.38
2022-09-22T03:31:32.617Z,3.45
2022-09-22T03:33:59.123Z,3.47
2022-09-22T03:36:25.653Z,3.53
2022-09-22T03:38:52.377Z,2.85
2022-09-22T03:41:19.788Z,3.85
2022-09-22T03:43:46.396Z,3.38
2022-09-22T03:46:14.182Z,3.60
2022-09-22T03:48:44.911Z,3.90
2022-09-22T03:51:12.323Z,3.65
2022-09-22T03:53:38.985Z,3.20
2022-09-22T03:56:11.767Z,4.03
2022-09-22T03:58:39.613Z,3.80
2022-09-22T04:01:07.206Z,3.50
2022-09-22T04:03:34.365Z,4.13
2022-09-22T04:06:01.264Z,3.90
2022-09-22T04:08:27.864Z,3.97
2022-09-22T04:10:54.484Z,3.58
2022-09-22T04:13:20.993Z,3.40
2022-09-22T04:15:47.446Z,3.80
2022-09-22T04:18:14.397Z,3.60
2022-09-22T04:20:43.491Z,3.10
2022-09-22T04:23:11.397Z,4.03
2022-09-22T04:25:38.071Z,3.67
2022-09-22T04:28:05.892Z,4.20
2022-09-22T04:30:34.569Z,3.85
2022-09-22T04:33:01.063Z,3.90
2022-09-22T04:35:28.368Z,3.95
2022-09-22T04:37:55.752Z,3.83
2022-09-22T04:40:24.135Z,4.10
2022-09-22T04:42:51.077Z,3.67
2022-09-22T04:45:18.038Z,4.30
2022-09-22T04:47:49.780Z,4.70
2022-09-22T04:50:18.071Z,3.80
2022-09-22T04:52:49.981Z,3.97
2022-09-22T04:55:17.205Z,3.88
2022-09-22T04:57:54.546Z,3.83
2022-09-22T05:00:22.981Z,3.92
2022-09-22T05:02:49.841Z,2.53
2022-09-22T05:05:17.415Z,3.55
2022-09-22T05:07:49.496Z,3.80
2022-09-22T05:10:20.308Z,3.42
2022-09-22T05:12:46.860Z,3.65
2022-09-22T05:15:14.357Z,3.63
2022-09-22T05:17:48.477Z,3.38
2022-09-22T05:20:15.673Z,3.83
2022-09-22T05:22:43.186Z,3.50
2022-09-22T05:25:11.950Z,3.50
2022-09-22T05:27:53.174Z,4.00
2022-09-22T05:30:22.029Z,3.85
2022-09-22T05:32:49.337Z,3.97
2022-09-22T05:35:25.955Z,3.72
2022-09-22T05:37:53.597Z,3.60
2022-09-22T05:40:23.603Z,4.22
2022-09-22T05:42:51.483Z,3.58
2022-09-22T05:45:19.476Z,3.63
2022-09-22T05:47:46.363Z,3.35
2022-09-22T05:50:14.228Z,4.00
2022-09-22T05:52:40.712Z,4.25
2022-09-22T05:55:08.057Z,4.13
2022-09-22T05:57:34.689Z,3.72
2022-09-22T06:00:01.286Z,3.30
2022-09-22T06:02:27.876Z,3.92
2022-09-22T06:04:54.415Z,3.50
2022-09-22T06:07:22.347Z,4.07
2022-09-22T06:09:49.117Z,3.70
2022-09-22T06:12:16.261Z,4.10
2022-09-22T06:14:42.761Z,4.00
2022-09-22T06:17:12.311Z,4.13
2022-09-22T06:19:39.794Z,3.60
2022-09-22T06:22:08.071Z,4.50
2022-09-22T06:24:34.587Z,4.10
2022-09-22T06:27:01.080Z,4.03
2022-09-22T06:29:28.319Z,4.72
2022-09-22T06:31:54.981Z,4.80
2022-09-22T06:34:23.025Z,3.78
2022-09-22T06:36:50.076Z,4.22
2022-09-22T06:39:16.719Z,4.70
2022-09-22T06:41:44.675Z,3.75
2022-09-22T06:44:12.542Z,3.88
2022-09-22T06:46:39.239Z,4.25
2022-09-22T06:49:05.824Z,4.30
2022-09-22T06:51:34.878Z,4.30
2022-09-22T06:54:06.101Z,4.00
2022-09-22T06:56:39.827Z,4.45
2022-09-22T06:59:10.949Z,3.60
2022-09-22T07:01:38.229Z,4.20
2022-09-22T07:04:04.953Z,3.97
2022-09-22T07:06:31.657Z,3.83
2022-09-22T07:08:58.265Z,3.95
2022-09-22T07:11:24.923Z,3.95
2022-09-22T07:13:53.487Z,4.00
2022-09-22T07:16:22.558Z,4.07
2022-09-22T07:21:20.861Z,4.05
2022-09-22T07:23:49.848Z,4.30
2022-09-22T07:26:21.912Z,4.80
2022-09-22T07:28:52.778Z,3.80
2022-09-22T07:31:19.603Z,4.18
2022-09-22T07:33:46.445Z,4.10
2022-09-22T07:36:16.069Z,3.70
2022-09-22T07:38:44.023Z,3.85
2022-09-22T07:41:12.801Z,3.90
2022-09-22T07:43:40.780Z,4.78
2022-09-22T07:46:08.644Z,3.95
2022-09-22T07:48:37.557Z,4.00
2022-09-22T07:51:11.684Z,4.50
2022-09-22T07:53:40.501Z,4.00
2022-09-22T07:56:15.048Z,4.00
2022-09-22T07:58:47.536Z,3.85
2022-09-22T08:01:14.523Z,4.20
2022-09-22T08:03:41.620Z,4.35
2022-09-22T08:06:11.034Z,3.80
2022-09-22T08:08:43.131Z,3.97
2022-09-22T08:11:15.664Z,4.30
2022-09-22T08:13:43.978Z,4.85
2022-09-22T08:16:11.442Z,5.10
2022-09-22T08:18:39.506Z,4.50
2022-09-22T08:21:07.824Z,3.83
2022-09-22T08:23:34.978Z,4.20
2022-09-22T08:26:08.540Z,4.57
2022-09-22T08:28:35.131Z,3.85
2022-09-22T08:31:02.790Z,3.83
2022-09-22T08:33:31.045Z,4.28
2022-09-22T08:36:03.618Z,3.90
2022-09-22T08:38:33.569Z,4.00
2022-09-22T08:41:42.286Z,4.30
2022-09-22T08:44:11.272Z,4.10
2022-09-22T08:46:44.022Z,4.35
2022-09-22T08:49:44.437Z,3.63
2022-09-22T08:52:23.569Z,3.67
2022-09-22T08:54:50.083Z,3.28
2022-09-22T08:57:56.131Z,3.55
2022-09-22T09:00:24.096Z,3.65
2022-09-22T09:03:23.964Z,3.20
2022-09-22T09:06:22.092Z,2.85
2022-09-22T09:09:01.297Z,3.00
2022-09-22T09:11:59.600Z,3.22
2022-09-22T09:15:01.259Z,2.72
2022-09-22T09:17:30.697Z,2.55
2022-09-22T09:20:18.460Z,2.92
2022-09-22T09:22:56.028Z,2.63
2022-09-22T09:25:31.963Z,3.45
2022-09-22T09:28:03.460Z,2.75
2022-09-22T09:30:41.542Z,2.47
2022-09-22T09:33:37.142Z,2.60
2022-09-22T09:36:03.957Z,2.92
2022-09-22T09:38:35.443Z,2.63
2022-09-22T09:41:15.721Z,2.40
2022-09-22T09:43:44.808Z,2.53
2022-09-22T09:46:26.571Z,2.75
2022-09-22T09:49:06.668Z,3.00
2022-09-22T09:51:39.658Z,2.72
2022-09-22T09:54:11.870Z,2.13
2022-09-22T09:57:13.017Z,2.20
2022-09-22T10:00:19.146Z,1.90
2022-09-22T10:02:57.078Z,2.10
2022-09-22T10:05:26.912Z,2.97
2022-09-22T10:08:03.253Z,2.08
2022-09-22T10:10:29.742Z,1.98
2022-09-22T10:13:18.078Z,1.90
2022-09-22T10:16:02.096Z,2.33
2022-09-22T10:18:40.274Z,2.20
2022-09-22T10:21:20.957Z,1.88
2022-09-22T10:23:49.986Z,2.13
2022-09-22T10:26:27.762Z,2.00
2022-09-22T10:29:12.361Z,1.80
2022-09-22T10:31:40.580Z,1.75
2022-09-22T10:34:34.688Z,1.77
2022-09-22T10:37:03.448Z,1.85
2022-09-22T10:39:43.177Z,1.70
2022-09-22T10:42:37.777Z,1.85
2022-09-22T10:45:13.679Z,1.73
2022-09-22T10:47:45.949Z,1.98
2022-09-22T10:50:50.939Z,1.60
2022-09-22T10:53:35.729Z,1.67
2022-09-22T10:56:22.368Z,1.70
2022-09-22T10:59:02.813Z,1.50
2022-09-22T11:02:11.077Z,1.85
2022-09-22T11:04:49.662Z,1.55
2022-09-22T11:08:01.733Z,1.50
2022-09-22T11:11:03.230Z,1.65
2022-09-22T11:14:06.570Z,1.60
2022-09-22T11:17:01.932Z,1.60
2022-09-22T11:19:44.395Z,1.45
2022-09-22T11:23:12.587Z,1.60
2022-09-22T11:26:01.716Z,1.50
2022-09-22T11:29:07.303Z,1.55
2022-09-22T11:32:15.550Z,1.23
2022-09-22T11:35:12.284Z,1.63
2022-09-22T11:37:44.640Z,1.30
2022-09-22T11:40:35.483Z,1.55
2022-09-22T11:43:11.103Z,1.20
2022-09-22T11:45:59.376Z,1.38
2022-09-22T11:48:34.937Z,1.50
2022-09-22T11:51:19.604Z,1.90
2022-09-22T11:54:09.773Z,1.60
2022-09-22T11:56:43.780Z,1.65
2022-09-22T11:59:24.615Z,1.58
2022-09-22T12:01:54.221Z,1.35
2022-09-22T12:07:07.627Z,1.25
2022-09-22T12:09:39.464Z,1.20
2022-09-22T12:12:09.949Z,1.33
2022-09-22T12:14:36.500Z,1.10
2022-09-22T12:17:40.825Z,0.98
2022-09-22T12:20:22.337Z,1.20
2022-09-22T12:23:21.964Z,0.93
2022-09-22T12:25:58.252Z,1.15
2022-09-22T12:28:27.972Z,1.10
2022-09-22T12:31:04.817Z,1.08
2022-09-22T12:33:37.432Z,1.20
2022-09-22T12:36:05.185Z,0.90
2022-09-22T12:38:32.174Z,1.20
2022-09-22T12:41:02.903Z,0.80
2022-09-22T12:43:31.265Z,1.30
2022-09-22T12:45:59.898Z,1.15
2022-09-22T12:48:31.286Z,1.15
2022-09-22T12:51:42.990Z,1.08
2022-09-22T12:54:26.142Z,1.00
2022-09-22T12:57:03.413Z,1.30
2022-09-22T12:59:36.067Z,0.93
2022-09-22T13:02:11.581Z,0.90
2022-09-22T13:04:38.098Z,1.25
2022-09-22T13:07:05.508Z,1.02
2022-09-22T13:09:32.543Z,1.02
2022-09-22T13:12:11.910Z,0.90
2022-09-22T13:15:06.272Z,0.90
2022-09-22T13:17:33.801Z,1.00
2022-09-22T13:20:00.457Z,1.30
2022-09-22T13:22:26.888Z,0.90
2022-09-22T13:24:53.303Z,1.15
2022-09-22T13:27:19.981Z,1.02
2022-09-22T13:29:57.794Z,1.08
2022-09-22T13:32:27.809Z,0.90
2022-09-22T13:34:54.450Z,1.10
2022-09-22T13:37:23.488Z,1.02
2022-09-22T13:39:52.985Z,1.05
2022-09-22T13:45:06.247Z,1.02
2022-09-22T13:47:34.957Z,1.10
2022-09-22T13:50:08.086Z,1.40
2022-09-22T13:52:38.529Z,1.00
2022-09-22T13:55:09.835Z,1.50
2022-09-22T13:57:37.715Z,1.95
2022-09-22T14:00:06.380Z,1.33
2022-09-22T14:02:33.168Z,1.30
2022-09-22T14:05:08.091Z,1.23
2022-09-22T14:07:49.658Z,1.20
2022-09-22T14:10:24.760Z,0.80
2022-09-22T14:12:51.504Z,0.88
2022-09-22T14:15:36.189Z,1.33
2022-09-22T14:18:19.489Z,1.75
2022-09-22T14:20:47.174Z,1.30
2022-09-22T14:23:18.693Z,0.90
2022-09-22T14:25:45.300Z,1.40
2022-09-22T14:28:21.632Z,1.40
2022-09-22T14:30:49.372Z,1.35
2022-09-22T14:33:28.992Z,0.93
2022-09-22T14:36:05.609Z,0.80
2022-09-22T14:38:43.025Z,0.88
2022-09-22T14:41:37.481Z,1.10
2022-09-22T14:44:26.617Z,1.10
2022-09-22T14:46:55.413Z,1.10
2022-09-22T14:49:40.778Z,0.80
2022-09-22T14:52:21.264Z,1.10
2022-09-22T14:54:47.852Z,1.00
2022-09-22T14:57:16.614Z,0.88
2022-09-22T15:00:11.451Z,1.05
2022-09-22T15:02:41.369Z,0.95
2022-09-22T15:05:11.639Z,1.08
2022-09-22T15:07:48.008Z,0.90
2022-09-22T15:10:21.500Z,1.10
2022-09-22T15:12:49.703Z,1.73
2022-09-22T15:15:27.061Z,1.48
2022-09-22T15:18:15.625Z,1.85
2022-09-22T15:20:44.765Z,0.97
2022-09-22T15:23:16.384Z,1.50
2022-09-22T15:25:44.258Z,1.48
2022-09-22T15:28:15.781Z,2.00
2022-09-22T15:30:44.586Z,1.60
2022-09-22T15:33:14.529Z,1.10
2022-09-22T15:35:46.865Z,1.10
2022-09-22T15:38:27.337Z,1.08
2022-09-22T15:40:53.932Z,1.10
2022-09-22T15:43:23.214Z,1.25
2022-09-22T15:45:53.771Z,1.10
2022-09-22T15:48:25.167Z,0.93
2022-09-22T15:50:52.284Z,1.40
2022-09-22T15:53:18.767Z,1.45
2022-09-22T15:55:45.269Z,1.30
2022-09-22T15:58:15.101Z,1.25
2022-09-22T16:00:41.602Z,1.08
2022-09-22T16:03:25.045Z,1.20
2022-09-22T16:05:58.801Z,1.40
2022-09-22T16:08:34.122Z,1.30
2022-09-22T16:11:05.050Z,1.30
2022-09-22T16:13:33.301Z,1.13
2022-09-22T16:16:05.652Z,1.38
2022-09-22T16:18:33.006Z,1.20
2022-09-22T16:21:04.294Z,1.65
2022-09-22T16:23:31.577Z,1.17
2022-09-22T16:25:58.501Z,1.38
2022-09-22T16:28:24.956Z,1.25
2022-09-22T16:30:51.451Z,1.02
2022-09-22T16:33:17.914Z,1.23
2022-09-22T16:35:44.539Z,1.20
2022-09-22T16:38:11.589Z,1.30
2022-09-22T16:40:38.115Z,1.00
2022-09-22T16:43:04.640Z,1.10
2022-09-22T16:45:51.098Z,1.10
2022-09-22T16:48:18.027Z,1.00
2022-09-22T16:50:45.918Z,1.50
2022-09-22T16:53:14.233Z,1.27
2022-09-22T16:55:48.122Z,1.23
2022-09-22T16:58:14.680Z,1.17
2022-09-22T17:00:41.161Z,1.48
2022-09-22T17:03:08.185Z,1.08
2022-09-22T17:05:35.164Z,1.15
2022-09-22T17:08:06.526Z,1.10
2022-09-22T17:10:35.582Z,1.23
2022-09-22T17:13:05.136Z,1.50
2022-09-22T17:15:35.682Z,1.40
2022-09-22T17:18:03.996Z,1.20
2022-09-22T17:20:30.501Z,1.10
2022-09-22T17:22:57.409Z,1.30
2022-09-22T17:25:29.139Z,1.33
2022-09-22T17:27:56.416Z,1.10
2022-09-22T17:30:23.048Z,1.27
2022-09-22T17:32:49.515Z,1.00
2022-09-22T17:35:15.961Z,1.20
2022-09-22T17:37:42.428Z,1.30
2022-09-22T17:40:11.626Z,1.38
2022-09-22T17:42:38.180Z,1.15
2022-09-22T17:45:07.168Z,1.30
2022-09-22T17:48:12.072Z,1.55
2022-09-22T17:50:57.590Z,1.58
2022-09-22T17:53:42.939Z,1.30
2022-09-22T17:56:13.047Z,1.50
2022-09-22T18:01:06.182Z,1.17
2022-09-22T18:03:32.640Z,1.60
2022-09-22T18:05:59.289Z,1.67
2022-09-22T18:08:25.784Z,1.60
2022-09-22T18:10:52.228Z,1.90
2022-09-22T18:13:18.730Z,1.80
2022-09-22T18:15:45.469Z,1.10
2022-09-22T18:18:11.977Z,1.65
2022-09-22T18:20:39.614Z,1.52
2022-09-22T18:23:06.992Z,1.50
2022-09-22T18:25:33.765Z,1.55
2022-09-22T18:28:00.814Z,1.38
2022-09-22T18:30:28.161Z,1.63
2022-09-22T18:32:55.062Z,1.65
2022-09-22T18:35:21.529Z,1.90
2022-09-22T18:37:48.033Z,1.92
2022-09-22T18:40:16.614Z,1.85
2022-09-22T18:42:44.659Z,1.93
2022-09-22T18:45:14.014Z,2.00
2022-09-22T18:47:43.121Z,2.00
2022-09-22T18:50:10.981Z,2.00
2022-09-22T18:52:38.097Z,2.20
2022-09-22T18:55:05.062Z,2.13
2022-09-22T18:57:31.610Z,2.17
2022-09-22T18:59:59.769Z,2.70
2022-09-22T19:02:26.666Z,2.95
2022-09-22T19:04:53.308Z,3.40
2022-09-22T19:07:41.570Z,3.40
2022-09-22T19:10:11.303Z,3.10
2022-09-22T19:12:39.796Z,2.60
2022-09-22T19:15:15.164Z,3.00
2022-09-22T19:17:46.114Z,3.47
2022-09-22T19:20:14.922Z,3.10
2022-09-22T19:22:41.501Z,2.95
2022-09-22T19:25:08.396Z,2.92
2022-09-22T19:27:35.032Z,3.55
2022-09-22T19:30:02.181Z,3.25
2022-09-22T19:32:28.668Z,2.67
2022-09-22T19:34:56.294Z,3.28
2022-09-22T19:37:24.720Z,3.42
2022-09-22T19:39:51.557Z,2.85
2022-09-22T19:42:18.605Z,2.88
2022-09-22T19:44:45.058Z,3.08
2022-09-22T19:47:11.499Z,2.85
2022-09-22T19:49:37.946Z,2.88
2022-09-22T19:52:04.396Z,3.40
2022-09-22T19:54:30.858Z,3.00
2022-09-22T19:56:59.043Z,2.67
2022-09-22T19:59:25.552Z,2.80
2022-09-22T20:01:54.866Z,2.65
2022-09-22T20:04:22.298Z,2.80
2022-09-22T20:06:48.964Z,3.28
2022-09-22T20:09:16.575Z,2.90
2022-09-22T20:11:46.089Z,2.88
2022-09-22T20:16:50.406Z,2.60
2022-09-22T20:19:17.023Z,2.90
2022-09-22T20:21:45.444Z,2.80
2022-09-22T20:24:14.689Z,3.50
2022-09-22T20:26:43.259Z,3.30
2022-09-22T20:29:10.873Z,3.07
2022-09-22T20:31:37.459Z,3.35
2022-09-22T20:34:07.884Z,3.10
2022-09-22T20:36:37.133Z,3.28
2022-09-22T20:39:04.494Z,3.38
2022-09-22T20:41:30.961Z,3.30
2022-09-22T20:43:58.327Z,3.20
2022-09-22T20:46:25.434Z,3.00
2022-09-22T20:48:55.189Z,3.13
2022-09-22T20:51:22.432Z,3.30
2022-09-22T20:53:48.853Z,3.20
2022-09-22T20:56:15.689Z,2.97
2022-09-22T20:58:44.893Z,3.28
2022-09-22T21:01:14.255Z,3.20
2022-09-22T21:03:41.006Z,3.33
2022-09-22T21:06:09.850Z,2.85
2022-09-22T21:08:59.516Z,3.10
2022-09-22T21:11:29.068Z,2.85
2022-09-22T21:14:05.484Z,3.75
2022-09-22T21:16:34.608Z,3.33
2022-09-22T21:19:03.997Z,3.00
2022-09-22T21:21:32.029Z,3.15
2022-09-22T21:24:01.791Z,3.25
2022-09-22T21:26:29.840Z,3.22
2022-09-22T21:28:57.264Z,3.93
2022-09-22T21:31:23.942Z,3.65
2022-09-22T21:33:50.446Z,3.47
2022-09-22T21:36:19.392Z,3.95
2022-09-22T21:38:48.265Z,3.60
2022-09-22T21:41:19.849Z,3.47
2022-09-22T21:43:46.681Z,3.30
2022-09-22T21:46:16.075Z,2.90
2022-09-22T21:48:43.028Z,3.60
2022-09-22T21:51:15.066Z,3.17
2022-09-22T21:53:45.477Z,3.10
2022-09-22T21:56:17.125Z,3.30
2022-09-22T21:58:48.976Z,2.88
2022-09-22T22:01:17.972Z,3.25
2022-09-22T22:03:46.059Z,2.90
2022-09-22T22:06:18.246Z,2.90
2022-09-22T22:08:52.033Z,2.90
2022-09-22T22:11:24.040Z,3.67
2022-09-22T22:13:53.306Z,3.08
2022-09-22T22:16:22.734Z,3.20
2022-09-22T22:18:49.707Z,3.42
2022-09-22T22:21:19.270Z,3.38
2022-09-22T22:26:24.990Z,3.10
2022-09-22T22:28:52.689Z,3.20
2022-09-22T22:31:22.541Z,3.38
2022-09-22T22:33:49.677Z,3.42
2022-09-22T22:36:18.228Z,3.60
2022-09-22T22:38:45.247Z,3.55
2022-09-22T22:41:17.111Z,3.13
2022-09-22T22:43:44.242Z,2.88
2022-09-22T22:46:16.501Z,3.20
2022-09-22T22:48:43.825Z,3.45
2022-09-22T22:51:13.949Z,3.28
2022-09-22T22:53:41.385Z,2.67
2022-09-22T22:56:12.555Z,3.33
2022-09-22T22:58:39.098Z,2.97
2022-09-22T23:01:12.383Z,3.75
2022-09-22T23:03:44.520Z,2.90
2022-09-22T23:06:19.973Z,3.28
2022-09-22T23:08:46.726Z,2.88
2022-09-22T23:11:18.918Z,3.03
2022-09-22T23:13:50.852Z,3.05
2022-09-22T23:16:26.168Z,3.15
2022-09-22T23:18:53.009Z,3.25
2022-09-22T23:21:21.348Z,3.38
2022-09-22T23:23:48.902Z,3.08
2022-09-22T23:26:16.766Z,3.13
2022-09-22T23:28:43.541Z,3.00
2022-09-22T23:31:16.218Z,3.03
2022-09-22T23:33:45.397Z,3.10
2022-09-22T23:36:14.701Z,2.80
2022-09-22T23:38:41.181Z,3.05
2022-09-22T23:41:08.718Z,2.88
2022-09-22T23:43:35.464Z,3.22
2022-09-22T23:46:04.499Z,3.28
2022-09-22T23:48:32.124Z,3.30
2022-09-22T23:51:00.523Z,3.28
2022-09-22T23:53:33.841Z,2.95
2022-09-22T23:56:02.281Z,2.67
2022-09-22T23:58:30.257Z,2.90
